Time;durP1;ratioP1;P1;durP2;ratioP2;P2;SDS_P1;SDS_P2;PMS_P1;PMS_P2;Temp;Humidity;BMP_temperature;BMP_pressure;BME280_temperature;BME280_humidity;BME280_pressure;Samples;Min_cycle;Max_cycle;Signal;HPM_P1;HPM_P2
2023/08/03 00:00:26;;;;;;;916.85;827.97;;;;;;;;;;6122079;23;20018;-68
2023/08/03 00:02:52;;;;;;;915.83;830.38;;;;;;;;;;6122332;23;20443;-68
2023/08/03 00:05:19;;;;;;;899.47;816.47;;;;;;;;;;6096345;23;20179;-65
2023/08/03 00:07:47;;;;;;;919.47;832.50;;;;;;;;;;6121877;23;20024;-70
2023/08/03 00:10:14;;;;;;;887.72;804.35;;;;;;;;;;6095790;23;20025;-69
2023/08/03 00:12:40;;;;;;;919.78;831.05;;;;;;;;;;6096018;23;20021;-67
2023/08/03 00:15:07;;;;;;;920.40;835.28;;;;;;;;;;6122752;23;20046;-67
2023/08/03 00:17:34;;;;;;;917.65;831.75;;;;;;;;;;6096239;23;20022;-65
2023/08/03 00:20:03;;;;;;;893.63;810.25;;;;;;;;;;6122305;23;20026;-68
2023/08/03 00:22:30;;;;;;;907.78;820.53;;;;;;;;;;6095912;23;20045;-66
2023/08/03 00:24:58;;;;;;;904.30;820.67;;;;;;;;;;6072174;23;20475;-66
2023/08/03 00:27:25;;;;;;;918.55;831.25;;;;;;;;;;6095945;23;20340;-64
2023/08/03 00:29:52;;;;;;;906.80;821.90;;;;;;;;;;6072772;23;20629;-69
2023/08/03 00:32:19;;;;;;;907.95;824.38;;;;;;;;;;6122166;23;20429;-65
2023/08/03 00:34:46;;;;;;;911.72;826.30;;;;;;;;;;6121860;23;20393;-68
2023/08/03 00:37:13;;;;;;;904.15;820.95;;;;;;;;;;6096128;23;20092;-66
2023/08/03 00:39:39;;;;;;;905.17;820.20;;;;;;;;;;6121244;23;20048;-66
2023/08/03 00:42:09;;;;;;;912.83;828.03;;;;;;;;;;6096593;23;20029;-66
2023/08/03 00:44:37;;;;;;;926.50;840.13;;;;;;;;;;6095718;23;20081;-69
2023/08/03 00:47:04;;;;;;;909.97;824.55;;;;;;;;;;6095946;23;20048;-67
2023/08/03 00:49:31;;;;;;;909.55;824.22;;;;;;;;;;6121938;23;20010;-67
2023/08/03 00:51:58;;;;;;;922.58;837.63;;;;;;;;;;6096068;23;20409;-67
2023/08/03 00:54:26;;;;;;;928.83;837.75;;;;;;;;;;6095615;23;20119;-68
2023/08/03 00:56:53;;;;;;;906.22;822.05;;;;;;;;;;6096395;23;20026;-65
2023/08/03 00:59:20;;;;;;;914.05;827.95;;;;;;;;;;6095732;23;20033;-65
2023/08/03 01:01:46;;;;;;;921.55;836.25;;;;;;;;;;6097036;23;20029;-67
2023/08/03 01:04:13;;;;;;;909.28;824.92;;;;;;;;;;6121557;23;20376;-65
2023/08/03 01:06:39;;;;;;;925.55;838.40;;;;;;;;;;6120276;23;20022;-67
2023/08/03 01:09:06;;;;;;;912.28;826.25;;;;;;;;;;6121843;23;20022;-68
2023/08/03 01:11:33;;;;;;;910.60;826.30;;;;;;;;;;6119738;23;20025;-66
2023/08/03 01:14:00;;;;;;;918.83;834.15;;;;;;;;;;6120417;23;20021;-69
2023/08/03 01:16:27;;;;;;;922.28;834.97;;;;;;;;;;6121387;23;20057;-71
2023/08/03 01:18:54;;;;;;;905.08;820.88;;;;;;;;;;6120410;23;20428;-66
2023/08/03 01:21:21;;;;;;;919.38;832.70;;;;;;;;;;6121552;23;20688;-67
2023/08/03 01:23:48;;;;;;;916.78;831.20;;;;;;;;;;6121837;23;20353;-65
2023/08/03 01:26:15;;;;;;;910.70;824.72;;;;;;;;;;6119756;23;20044;-66
2023/08/03 01:28:41;;;;;;;917.45;832.20;;;;;;;;;;6121757;23;20022;-65
2023/08/03 01:31:08;;;;;;;914.25;829.45;;;;;;;;;;6121819;23;20061;-64
2023/08/03 01:33:35;;;;;;;924.22;834.25;;;;;;;;;;6120258;23;20022;-66
2023/08/03 01:36:02;;;;;;;901.47;817.08;;;;;;;;;;6121804;23;20018;-67
2023/08/03 01:38:29;;;;;;;912.67;827.13;;;;;;;;;;6120300;23;20026;-67
2023/08/03 01:40:55;;;;;;;916.70;832.55;;;;;;;;;;6121001;23;20021;-67
2023/08/03 01:43:22;;;;;;;930.40;844.80;;;;;;;;;;6123520;23;20021;-65
2023/08/03 01:45:48;;;;;;;922.42;834.88;;;;;;;;;;6121614;23;20088;-66
2023/08/03 01:48:15;;;;;;;922.35;837.05;;;;;;;;;;6123961;23;20017;-69
2023/08/03 01:50:41;;;;;;;921.72;835.08;;;;;;;;;;6122967;23;20053;-65
2023/08/03 01:53:08;;;;;;;916.45;831.10;;;;;;;;;;6123320;23;20057;-64
2023/08/03 01:55:35;;;;;;;923.85;837.65;;;;;;;;;;6123026;23;20021;-67
2023/08/03 01:58:01;;;;;;;923.65;838.75;;;;;;;;;;6121552;23;20098;-70
2023/08/03 02:03:56;;;;;;;908.78;823.70;;;;;;;;;;6035059;23;20050;-64
2023/08/03 02:06:22;;;;;;;907.67;822.72;;;;;;;;;;6037136;23;20016;-65
2023/08/03 02:08:49;;;;;;;907.75;821.70;;;;;;;;;;6035605;23;20046;-66
2023/08/03 02:11:16;;;;;;;912.47;829.08;;;;;;;;;;6010956;23;20027;-65
2023/08/03 02:13:43;;;;;;;912.42;826.90;;;;;;;;;;6011255;23;20016;-64
2023/08/03 02:16:10;;;;;;;909.35;824.15;;;;;;;;;;6036845;23;20136;-66
2023/08/03 02:18:50;;;;;;;913.25;827.55;;;;;;;;;;6036751;23;20077;-65
2023/08/03 02:21:16;;;;;;;907.40;822.47;;;;;;;;;;6011829;23;20023;-65
2023/08/03 02:23:43;;;;;;;900.70;817.28;;;;;;;;;;6011802;23;20450;-64
2023/08/03 02:26:10;;;;;;;906.13;822.28;;;;;;;;;;6035897;23;20473;-65
2023/08/03 02:28:36;;;;;;;894.17;809.22;;;;;;;;;;6036607;23;20023;-65
2023/08/03 02:31:03;;;;;;;900.47;815.50;;;;;;;;;;6011425;23;20377;-64
2023/08/03 02:33:38;;;;;;;903.58;817.33;;;;;;;;;;6011413;23;20027;-64
2023/08/03 02:36:05;;;;;;;898.47;815.00;;;;;;;;;;6011716;23;20035;-66
2023/08/03 02:38:33;;;;;;;909.97;825.67;;;;;;;;;;6011299;23;20019;-64
2023/08/03 02:40:59;;;;;;;903.90;818.35;;;;;;;;;;6010279;23;20029;-64
2023/08/03 02:43:29;;;;;;;886.17;801.35;;;;;;;;;;6011137;23;20414;-65
2023/08/03 02:45:57;;;;;;;892.75;808.40;;;;;;;;;;6010845;23;20027;-64
2023/08/03 02:48:24;;;;;;;897.67;810.55;;;;;;;;;;6011133;23;20403;-64
2023/08/03 02:50:55;;;;;;;892.30;807.80;;;;;;;;;;6011273;23;20035;-64
2023/08/03 02:53:21;;;;;;;880.25;796.80;;;;;;;;;;6011358;23;20061;-64
2023/08/03 02:55:48;;;;;;;891.13;805.38;;;;;;;;;;6035614;23;20019;-65
2023/08/03 02:58:15;;;;;;;888.55;804.40;;;;;;;;;;6010956;23;20027;-64
2023/08/03 03:00:42;;;;;;;891.92;806.97;;;;;;;;;;6010908;23;20110;-65
2023/08/03 03:03:11;;;;;;;889.90;805.67;;;;;;;;;;6011128;23;20320;-66
2023/08/03 03:05:39;;;;;;;910.38;823.65;;;;;;;;;;6010815;23;20019;-65
2023/08/03 03:08:09;;;;;;;891.20;808.10;;;;;;;;;;6011019;23;20476;-66
2023/08/03 03:10:37;;;;;;;892.70;806.97;;;;;;;;;;6009890;23;20030;-64
2023/08/03 03:13:04;;;;;;;897.47;812.63;;;;;;;;;;6010650;23;20453;-65
2023/08/03 03:15:30;;;;;;;904.88;817.33;;;;;;;;;;6011083;23;20035;-65
2023/08/03 03:17:57;;;;;;;894.55;811.22;;;;;;;;;;6034707;23;20027;-65
2023/08/03 03:20:25;;;;;;;876.67;795.22;;;;;;;;;;6010399;23;20708;-64
2023/08/03 03:22:52;;;;;;;891.50;808.42;;;;;;;;;;6034518;23;20027;-65
2023/08/03 03:25:18;;;;;;;908.90;823.80;;;;;;;;;;6010444;23;20023;-65
2023/08/03 03:27:46;;;;;;;905.63;820.08;;;;;;;;;;6010708;23;20354;-67
2023/08/03 03:30:13;;;;;;;910.83;826.35;;;;;;;;;;6010955;23;20109;-64
2023/08/03 03:32:40;;;;;;;911.17;823.00;;;;;;;;;;6010191;23;20072;-66
2023/08/03 03:35:06;;;;;;;905.63;820.40;;;;;;;;;;6010551;23;20458;-65
2023/08/03 03:37:33;;;;;;;924.33;838.25;;;;;;;;;;5987595;23;20026;-65
2023/08/03 03:40:00;;;;;;;906.58;824.08;;;;;;;;;;6009368;23;20028;-64
2023/08/03 03:42:35;;;;;;;944.45;846.42;;;;;;;;;;6009819;23;20027;-65
2023/08/03 03:45:02;;;;;;;924.63;839.47;;;;;;;;;;6010949;23;20026;-65
2023/08/03 03:47:29;;;;;;;908.83;824.80;;;;;;;;;;6035528;23;20023;-65
2023/08/03 03:49:59;;;;;;;916.33;830.53;;;;;;;;;;6009297;23;20019;-66
2023/08/03 03:52:25;;;;;;;919.58;833.95;;;;;;;;;;6009715;23;20011;-66
2023/08/03 03:54:52;;;;;;;920.33;834.65;;;;;;;;;;6009751;23;20028;-66
2023/08/03 03:57:21;;;;;;;922.78;837.13;;;;;;;;;;6034366;23;20484;-66
2023/08/03 03:59:48;;;;;;;919.05;834.60;;;;;;;;;;6035716;23;20517;-65
2023/08/03 04:02:14;;;;;;;920.97;835.78;;;;;;;;;;6009752;23;20027;-65
2023/08/03 04:04:41;;;;;;;929.05;842.35;;;;;;;;;;6035308;23;20055;-67
2023/08/03 04:07:08;;;;;;;926.05;839.53;;;;;;;;;;6010183;23;20023;-64
2023/08/03 04:09:34;;;;;;;940.15;849.30;;;;;;;;;;6034910;23;20449;-65
2023/08/03 04:12:01;;;;;;;927.90;843.22;;;;;;;;;;5987372;23;20015;-65
2023/08/03 04:14:27;;;;;;;933.75;848.33;;;;;;;;;;6010124;23;20052;-65
2023/08/03 04:16:54;;;;;;;938.92;853.10;;;;;;;;;;6010447;23;20020;-64
2023/08/03 04:19:22;;;;;;;949.03;862.15;;;;;;;;;;6010138;23;20057;-67
2023/08/03 04:21:48;;;;;;;948.78;860.90;;;;;;;;;;6035621;23;20019;-66
2023/08/03 04:24:15;;;;;;;956.60;865.10;;;;;;;;;;6010001;23;20034;-65
2023/08/03 04:26:43;;;;;;;940.17;851.88;;;;;;;;;;6010043;23;20083;-66
2023/08/03 04:29:16;;;;;;;;;;;;;;;;;;6010490;23;20020;-65
2023/08/03 04:31:42;;;;;;;937.80;849.80;;;;;;;;;;6009697;23;19929;-65
2023/08/03 04:34:10;;;;;;;953.17;865.50;;;;;;;;;;6035265;23;20468;-66
2023/08/03 04:36:37;;;;;;;962.83;871.42;;;;;;;;;;6009560;23;20029;-65
2023/08/03 04:39:04;;;;;;;970.33;881.47;;;;;;;;;;6010157;23;20027;-65
2023/08/03 04:41:30;;;;;;;969.75;880.63;;;;;;;;;;6009539;23;20342;-65
2023/08/03 04:43:57;;;;;;;966.63;879.28;;;;;;;;;;6035153;23;20027;-66
2023/08/03 04:46:27;;;;;;;981.90;892.00;;;;;;;;;;6009766;23;20019;-65
2023/08/03 04:48:54;;;;;;;971.42;882.35;;;;;;;;;;6009565;23;20358;-65
2023/08/03 04:51:22;;;;;;;985.35;895.47;;;;;;;;;;6010021;23;20030;-64
2023/08/03 04:53:49;;;;;;;991.65;902.42;;;;;;;;;;6010185;23;20027;-66
2023/08/03 04:56:17;;;;;;;1009.30;918.28;;;;;;;;;;6009246;23;20412;-67
2023/08/03 04:58:44;;;;;;;1024.82;932.55;;;;;;;;;;6009903;23;20102;-65
2023/08/03 05:01:11;;;;;;;1024.20;929.63;;;;;;;;;;6009995;23;20083;-64
2023/08/03 05:03:38;;;;;;;1039.10;942.78;;;;;;;;;;6005078;23;20072;-65
2023/08/03 05:06:05;;;;;;;1020.78;930.15;;;;;;;;;;6006867;23;20015;-65
2023/08/03 05:08:32;;;;;;;1033.22;941.10;;;;;;;;;;6004812;23;20028;-65
2023/08/03 05:10:59;;;;;;;1015.40;924.63;;;;;;;;;;6006189;23;20015;-66
2023/08/03 05:13:27;;;;;;;1013.40;923.35;;;;;;;;;;6006280;23;20027;-65
2023/08/03 05:15:54;;;;;;;1017.83;927.30;;;;;;;;;;6030422;23;20026;-66
2023/08/03 05:18:21;;;;;;;1020.65;929.28;;;;;;;;;;6008586;23;20501;-69
2023/08/03 05:20:47;;;;;;;1030.70;937.67;;;;;;;;;;6007277;23;20026;-66
2023/08/03 05:23:16;;;;;;;1018.63;928.47;;;;;;;;;;6008559;23;20056;-66
2023/08/03 05:25:43;;;;;;;1036.18;945.60;;;;;;;;;;5983181;23;20454;-65
2023/08/03 05:28:09;;;;;;;1029.65;937.03;;;;;;;;;;6008662;23;20388;-67
2023/08/03 05:30:36;;;;;;;1042.18;945.08;;;;;;;;;;6006445;23;20123;-66
2023/08/03 05:33:03;;;;;;;1029.50;937.85;;;;;;;;;;6031096;23;20099;-65
2023/08/03 05:35:29;;;;;;;1026.35;935.63;;;;;;;;;;6006911;23;20395;-66
2023/08/03 05:37:56;;;;;;;1018.17;927.15;;;;;;;;;;6008497;23;20024;-65
2023/08/03 05:40:23;;;;;;;1019.65;930.03;;;;;;;;;;6007860;23;20028;-66
2023/08/03 05:42:49;;;;;;;1030.65;938.72;;;;;;;;;;6007031;23;20020;-67
2023/08/03 05:45:36;;;;;;;1008.47;919.45;;;;;;;;;;6008512;23;20492;-68
2023/08/03 05:48:03;;;;;;;1022.63;929.78;;;;;;;;;;6008677;23;20506;-65
2023/08/03 05:50:30;;;;;;;999.95;910.28;;;;;;;;;;6006427;23;20023;-65
2023/08/03 05:52:56;;;;;;;1005.03;916.45;;;;;;;;;;6008330;23;20012;-65
2023/08/03 05:55:23;;;;;;;992.35;906.17;;;;;;;;;;6007846;23;20542;-69
2023/08/03 05:57:50;;;;;;;1021.10;928.35;;;;;;;;;;6008154;23;20336;-66
2023/08/03 06:00:18;;;;;;;1010.20;917.65;;;;;;;;;;6008432;23;20508;-69
2023/08/03 06:02:46;;;;;;;995.17;906.65;;;;;;;;;;5989187;23;20098;-68
2023/08/03 06:05:32;;;;;;;1002.60;912.97;;;;;;;;;;5979534;24;20058;-68
2023/08/03 06:07:59;;;;;;;1007.00;918.47;;;;;;;;;;5980465;24;20044;-70
2023/08/03 06:10:26;;;;;;;1021.75;930.08;;;;;;;;;;5979586;24;20016;-72
2023/08/03 06:12:53;;;;;;;1004.15;914.55;;;;;;;;;;5978515;24;20099;-78
2023/08/03 06:15:20;;;;;;;1016.67;927.55;;;;;;;;;;5980786;24;20424;-65
2023/08/03 06:17:46;;;;;;;1019.67;928.15;;;;;;;;;;5980141;24;20471;-69
2023/08/03 06:20:22;;;;;;;1023.30;931.95;;;;;;;;;;5980205;24;20027;-68
2023/08/03 06:22:48;;;;;;;1020.88;930.65;;;;;;;;;;6001987;23;20028;-68
2023/08/03 06:25:15;;;;;;;1042.30;950.17;;;;;;;;;;5979318;23;20027;-68
2023/08/03 06:27:42;;;;;;;1045.75;953.28;;;;;;;;;;5980091;24;20035;-68
2023/08/03 06:30:11;;;;;;;1037.72;945.58;;;;;;;;;;5980395;24;20396;-69
2023/08/03 06:32:38;;;;;;;1043.95;952.35;;;;;;;;;;5980012;24;20469;-68
2023/08/03 06:35:05;;;;;;;1035.75;944.60;;;;;;;;;;5979821;23;20012;-69
2023/08/03 06:37:31;;;;;;;1032.80;940.25;;;;;;;;;;5979925;24;20046;-68
2023/08/03 06:39:58;;;;;;;1028.50;937.35;;;;;;;;;;5979405;24;20459;-68
2023/08/03 06:42:25;;;;;;;1037.78;945.33;;;;;;;;;;5979847;24;20072;-68
2023/08/03 06:44:51;;;;;;;1031.55;940.70;;;;;;;;;;5978210;24;20027;-68
2023/08/03 06:47:18;;;;;;;1043.78;950.95;;;;;;;;;;5979467;24;20103;-68
2023/08/03 06:49:44;;;;;;;1038.10;945.47;;;;;;;;;;5979772;23;20030;-67
2023/08/03 06:52:11;;;;;;;1038.18;946.10;;;;;;;;;;5979904;23;20088;-68
2023/08/03 06:54:37;;;;;;;1044.07;947.78;;;;;;;;;;5978788;24;20020;-68
2023/08/03 06:57:04;;;;;;;1041.43;949.85;;;;;;;;;;5978541;24;20111;-68
2023/08/03 06:59:31;;;;;;;1044.10;947.70;;;;;;;;;;6001308;23;20524;-68
2023/08/03 07:01:57;;;;;;;1048.55;954.92;;;;;;;;;;5996887;23;20075;-69
2023/08/03 07:04:24;;;;;;;1045.32;953.55;;;;;;;;;;6011089;23;20070;-68
2023/08/03 07:06:51;;;;;;;1045.22;952.78;;;;;;;;;;6035672;23;20597;-68
2023/08/03 07:09:17;;;;;;;1059.97;963.05;;;;;;;;;;6035643;23;20019;-70
2023/08/03 07:11:44;;;;;;;1062.55;969.08;;;;;;;;;;6035473;23;20355;-69
2023/08/03 07:14:11;;;;;;;1066.82;974.50;;;;;;;;;;6035949;23;20022;-68
2023/08/03 07:16:38;;;;;;;1099.20;997.85;;;;;;;;;;6035667;23;20020;-69
2023/08/03 07:19:10;;;;;;;1103.97;999.90;;;;;;;;;;6033817;23;20034;-70
2023/08/03 07:21:36;;;;;;;1106.97;999.53;;;;;;;;;;6010934;23;20027;-68
2023/08/03 07:24:03;;;;;;;1115.40;999.90;;;;;;;;;;6010700;23;20477;-71
2023/08/03 07:26:29;;;;;;;1102.28;999.90;;;;;;;;;;6035209;23;20035;-69
2023/08/03 07:28:57;;;;;;;1104.82;999.90;;;;;;;;;;6035525;23;20023;-64
2023/08/03 07:31:24;;;;;;;1113.82;999.90;;;;;;;;;;6010152;23;20019;-68
2023/08/03 07:33:51;;;;;;;1113.20;999.90;;;;;;;;;;6035739;23;20015;-68
2023/08/03 07:36:18;;;;;;;1103.85;999.90;;;;;;;;;;6035816;23;20097;-72
2023/08/03 07:38:45;;;;;;;1109.90;999.90;;;;;;;;;;6035631;23;20023;-66
2023/08/03 07:41:11;;;;;;;1110.45;999.90;;;;;;;;;;6034945;23;20019;-66
2023/08/03 07:43:38;;;;;;;1103.85;999.90;;;;;;;;;;6035790;23;20027;-67
2023/08/03 07:46:05;;;;;;;1093.85;997.28;;;;;;;;;;6035807;23;20035;-72
2023/08/03 07:48:32;;;;;;;1086.15;987.92;;;;;;;;;;6010093;23;20501;-65
2023/08/03 07:50:58;;;;;;;1077.20;982.30;;;;;;;;;;6036208;23;20071;-64
2023/08/03 07:53:25;;;;;;;1078.28;968.72;;;;;;;;;;6036563;23;20019;-66
2023/08/03 07:55:52;;;;;;;1071.75;979.15;;;;;;;;;;6036286;23;20019;-64
2023/08/03 07:58:18;;;;;;;1068.53;975.10;;;;;;;;;;6035747;23;20038;-65
2023/08/03 08:00:45;;;;;;;1073.07;977.70;;;;;;;;;;6035652;23;20015;-65
2023/08/03 08:03:12;;;;;;;1074.22;979.35;;;;;;;;;;6036039;23;20042;-65
2023/08/03 08:05:38;;;;;;;1071.35;977.25;;;;;;;;;;6035766;23;20031;-65
2023/08/03 08:08:05;;;;;;;1071.20;971.47;;;;;;;;;;6035692;23;20091;-65
2023/08/03 08:10:31;;;;;;;1075.80;975.85;;;;;;;;;;6034838;23;20015;-65
2023/08/03 08:12:58;;;;;;;1074.95;980.50;;;;;;;;;;6036074;23;20075;-65
2023/08/03 08:15:25;;;;;;;1074.03;980.55;;;;;;;;;;6035791;23;20082;-66
2023/08/03 08:17:51;;;;;;;1067.70;974.13;;;;;;;;;;6034293;23;20020;-65
2023/08/03 08:20:18;;;;;;;1075.03;977.08;;;;;;;;;;6009931;23;20027;-66
2023/08/03 08:22:45;;;;;;;1071.80;977.20;;;;;;;;;;6035283;23;20446;-66
2023/08/03 08:25:11;;;;;;;1074.60;976.92;;;;;;;;;;6009043;23;20023;-65
2023/08/03 08:27:38;;;;;;;1071.63;974.45;;;;;;;;;;6008406;23;20446;-65
2023/08/03 08:30:05;;;;;;;1066.35;970.22;;;;;;;;;;6033815;23;20046;-65
2023/08/03 08:32:32;;;;;;;1066.65;971.67;;;;;;;;;;6033839;23;20019;-66
2023/08/03 08:34:59;;;;;;;1062.75;968.17;;;;;;;;;;6033867;23;20046;-65
2023/08/03 08:37:27;;;;;;;1061.20;968.17;;;;;;;;;;6033853;23;20074;-66
2023/08/03 08:39:54;;;;;;;1061.47;967.67;;;;;;;;;;6008404;23;20023;-65
2023/08/03 08:42:20;;;;;;;1059.22;965.40;;;;;;;;;;6036007;23;20019;-65
2023/08/03 08:44:47;;;;;;;1052.07;959.35;;;;;;;;;;6035426;23;20027;-65
2023/08/03 08:47:13;;;;;;;1047.85;955.22;;;;;;;;;;6035567;23;20027;-65
2023/08/03 08:49:40;;;;;;;1050.35;958.70;;;;;;;;;;6033849;23;20031;-65
2023/08/03 08:52:10;;;;;;;1044.07;951.13;;;;;;;;;;6035501;23;20015;-66
2023/08/03 08:54:37;;;;;;;1051.60;955.13;;;;;;;;;;6035035;23;20031;-65
2023/08/03 08:57:07;;;;;;;1036.50;943.17;;;;;;;;;;6035901;23;20019;-65
2023/08/03 08:59:56;;;;;;;1037.88;944.63;;;;;;;;;;6035278;23;20022;-65
2023/08/03 09:02:24;;;;;;;1026.00;935.67;;;;;;;;;;6034823;23;20023;-65
2023/08/03 09:04:51;;;;;;;1029.85;938.58;;;;;;;;;;6035287;23;20015;-65
2023/08/03 09:07:18;;;;;;;1027.75;936.70;;;;;;;;;;6035517;23;20446;-66
2023/08/03 09:09:44;;;;;;;1029.25;935.60;;;;;;;;;;6034692;23;20024;-65
2023/08/03 09:12:23;;;;;;;1027.53;936.33;;;;;;;;;;6034018;23;20019;-65
2023/08/03 09:14:50;;;;;;;1014.05;923.33;;;;;;;;;;6035171;23;20047;-66
2023/08/03 09:17:20;;;;;;;1007.70;918.08;;;;;;;;;;6035415;23;20019;-66
2023/08/03 09:19:47;;;;;;;1018.28;927.00;;;;;;;;;;6034988;23;20024;-65
2023/08/03 09:22:20;;;;;;;1013.83;922.13;;;;;;;;;;6010067;23;20457;-65
2023/08/03 09:25:18;;;;;;;1008.70;918.33;;;;;;;;;;6034633;23;20517;-65
2023/08/03 09:28:04;;;;;;;1006.63;915.08;;;;;;;;;;6026734;23;20023;-65
2023/08/03 09:30:51;;;;;;;994.10;905.72;;;;;;;;;;6035018;23;20453;-65
2023/08/03 09:33:20;;;;;;;1005.42;915.42;;;;;;;;;;6035799;23;20012;-65
2023/08/03 09:36:07;;;;;;;990.60;901.92;;;;;;;;;;6035546;23;20023;-65
2023/08/03 09:39:13;;;;;;;997.15;907.42;;;;;;;;;;6010689;23;20114;-66
2023/08/03 09:41:42;;;;;;;991.50;901.60;;;;;;;;;;6035622;23;20090;-66
2023/08/03 09:44:14;;;;;;;992.35;902.15;;;;;;;;;;6035191;23;20442;-65
2023/08/03 09:46:59;;;;;;;983.92;896.05;;;;;;;;;;6013864;23;20015;-65
2023/08/03 09:49:26;;;;;;;987.03;898.15;;;;;;;;;;6034741;23;20379;-65
2023/08/03 09:51:55;;;;;;;989.95;900.25;;;;;;;;;;6034863;23;20094;-65
2023/08/03 09:54:34;;;;;;;989.05;898.33;;;;;;;;;;6034984;23;20031;-66
2023/08/03 09:57:23;;;;;;;976.97;889.00;;;;;;;;;;6035433;23;20019;-65
2023/08/03 09:59:53;;;;;;;990.05;899.90;;;;;;;;;;6034986;23;20555;-66
2023/08/03 10:02:22;;;;;;;980.85;893.13;;;;;;;;;;6036681;23;20441;-65
2023/08/03 10:04:51;;;;;;;976.95;889.00;;;;;;;;;;6011434;23;20029;-65
2023/08/03 10:07:19;;;;;;;979.33;890.72;;;;;;;;;;6036336;23;20031;-65
2023/08/03 10:09:47;;;;;;;983.13;892.00;;;;;;;;;;6035723;23;20409;-65
2023/08/03 10:12:19;;;;;;;983.30;893.75;;;;;;;;;;6037056;23;20016;-64
2023/08/03 10:14:48;;;;;;;978.45;888.25;;;;;;;;;;6036322;23;20106;-65
2023/08/03 10:17:16;;;;;;;977.38;889.25;;;;;;;;;;6035107;23;20106;-65
2023/08/03 10:19:42;;;;;;;983.30;893.47;;;;;;;;;;6036360;23;20059;-65
2023/08/03 10:22:09;;;;;;;983.05;894.55;;;;;;;;;;6036599;23;20768;-65
2023/08/03 10:24:36;;;;;;;980.88;889.53;;;;;;;;;;6035765;23;20518;-65
2023/08/03 10:27:17;;;;;;;969.33;881.42;;;;;;;;;;6036488;23;20015;-65
2023/08/03 10:29:51;;;;;;;971.03;884.60;;;;;;;;;;6037074;23;20055;-65
2023/08/03 10:32:19;;;;;;;968.63;879.97;;;;;;;;;;6036581;23;20015;-66
2023/08/03 10:34:45;;;;;;;975.90;886.30;;;;;;;;;;6011549;23;20458;-65
2023/08/03 10:37:12;;;;;;;967.80;878.65;;;;;;;;;;6011321;23;20015;-65
2023/08/03 10:39:47;;;;;;;978.15;886.00;;;;;;;;;;6035698;23;20023;-65
2023/08/03 10:42:32;;;;;;;967.92;878.33;;;;;;;;;;6011745;23;20038;-65
2023/08/03 10:45:18;;;;;;;965.08;875.97;;;;;;;;;;6037021;23;20053;-65
2023/08/03 10:47:45;;;;;;;959.75;873.13;;;;;;;;;;6036889;23;20035;-65
2023/08/03 10:50:12;;;;;;;966.53;879.08;;;;;;;;;;6036742;23;20124;-65
2023/08/03 10:52:39;;;;;;;968.67;879.42;;;;;;;;;;6036382;23;20075;-65
2023/08/03 10:55:26;;;;;;;970.63;882.08;;;;;;;;;;6010997;23;20031;-65
2023/08/03 10:57:55;;;;;;;957.85;872.55;;;;;;;;;;6036901;23;20034;-65
2023/08/03 11:00:21;;;;;;;979.92;891.17;;;;;;;;;;6036510;23;20091;-65
2023/08/03 11:02:49;;;;;;;977.92;889.42;;;;;;;;;;6036174;23;20023;-66
2023/08/03 11:05:16;;;;;;;976.63;887.75;;;;;;;;;;6036089;23;20424;-65
2023/08/03 11:07:44;;;;;;;975.28;886.25;;;;;;;;;;6036453;23;20019;-65
2023/08/03 11:10:12;;;;;;;972.58;884.22;;;;;;;;;;6035666;23;20098;-66
2023/08/03 11:12:39;;;;;;;986.63;893.45;;;;;;;;;;6035598;23;20027;-65
2023/08/03 11:15:07;;;;;;;978.75;889.92;;;;;;;;;;6036000;23;20438;-65
2023/08/03 11:17:35;;;;;;;979.28;889.35;;;;;;;;;;6036140;23;20045;-66
2023/08/03 11:20:03;;;;;;;974.67;887.10;;;;;;;;;;6011176;23;20031;-64
2023/08/03 11:22:31;;;;;;;969.90;883.72;;;;;;;;;;6034365;23;20042;-65
2023/08/03 11:25:00;;;;;;;977.15;887.95;;;;;;;;;;6035689;23;20033;-65
2023/08/03 11:27:27;;;;;;;981.35;891.95;;;;;;;;;;6036348;23;20030;-65
2023/08/03 11:29:54;;;;;;;968.85;881.72;;;;;;;;;;6036451;23;20015;-65
2023/08/03 11:32:21;;;;;;;978.13;890.03;;;;;;;;;;6036658;23;20080;-64
2023/08/03 11:34:47;;;;;;;974.10;885.60;;;;;;;;;;6036271;23;20015;-64
2023/08/03 11:37:14;;;;;;;965.58;877.55;;;;;;;;;;6036386;23;20019;-65
2023/08/03 11:39:41;;;;;;;977.90;886.28;;;;;;;;;;6034905;23;20509;-65
2023/08/03 11:42:08;;;;;;;974.53;886.13;;;;;;;;;;6036301;23;20023;-65
2023/08/03 11:44:39;;;;;;;962.55;875.85;;;;;;;;;;6035928;23;20096;-65
2023/08/03 11:47:20;;;;;;;963.40;874.80;;;;;;;;;;6035881;23;20023;-64
2023/08/03 11:49:48;;;;;;;966.45;878.53;;;;;;;;;;6035803;23;20023;-64
2023/08/03 11:52:18;;;;;;;961.63;872.65;;;;;;;;;;6035811;23;20019;-66
2023/08/03 11:54:45;;;;;;;969.53;878.47;;;;;;;;;;6035462;23;20442;-65
2023/08/03 11:59:58;;;;;;;956.20;870.95;;;;;;;;;;5920934;24;20029;-65
2023/08/03 12:02:41;;;;;;;951.05;865.30;;;;;;;;;;5920082;24;20081;-65
2023/08/03 12:05:08;;;;;;;942.40;855.33;;;;;;;;;;5920669;24;20017;-65
2023/08/03 12:07:52;;;;;;;949.88;862.20;;;;;;;;;;5920809;24;20032;-65
2023/08/03 12:10:21;;;;;;;950.15;861.25;;;;;;;;;;5920378;24;20516;-64
2023/08/03 12:12:48;;;;;;;951.22;863.33;;;;;;;;;;5920852;24;20025;-65
2023/08/03 12:15:14;;;;;;;959.78;873.25;;;;;;;;;;5921025;24;20372;-65
2023/08/03 12:17:41;;;;;;;952.13;865.40;;;;;;;;;;5920514;24;20054;-65
2023/08/03 12:20:08;;;;;;;951.28;862.88;;;;;;;;;;5920493;24;20029;-65
2023/08/03 12:22:34;;;;;;;963.80;875.17;;;;;;;;;;5920120;24;20116;-64
2023/08/03 12:25:01;;;;;;;958.22;868.35;;;;;;;;;;5919836;24;20460;-65
2023/08/03 12:27:27;;;;;;;951.03;865.13;;;;;;;;;;5920640;24;20431;-65
2023/08/03 12:29:54;;;;;;;951.00;865.60;;;;;;;;;;5920616;24;20053;-65
2023/08/03 12:32:21;;;;;;;953.08;866.20;;;;;;;;;;5920374;24;20078;-64
2023/08/03 12:34:47;;;;;;;951.28;864.33;;;;;;;;;;5920466;24;20096;-65
2023/08/03 12:37:14;;;;;;;951.63;866.22;;;;;;;;;;5980083;23;20465;-65
2023/08/03 12:39:42;;;;;;;959.22;869.63;;;;;;;;;;6035245;23;20019;-64
2023/08/03 12:42:09;;;;;;;953.63;867.30;;;;;;;;;;6036509;23;20040;-64
2023/08/03 12:44:35;;;;;;;951.65;865.70;;;;;;;;;;6010674;23;20050;-65
2023/08/03 12:47:02;;;;;;;964.05;875.33;;;;;;;;;;6035765;23;20084;-65
2023/08/03 12:49:36;;;;;;;951.78;864.53;;;;;;;;;;6036001;23;20030;-65
2023/08/03 12:52:03;;;;;;;958.72;871.45;;;;;;;;;;6035794;23;20019;-65
2023/08/03 12:54:30;;;;;;;951.30;863.25;;;;;;;;;;6035328;23;20019;-65
2023/08/03 12:56:58;;;;;;;946.05;859.38;;;;;;;;;;6010846;23;20063;-65
2023/08/03 12:59:24;;;;;;;951.90;866.28;;;;;;;;;;6035759;23;20574;-64
2023/08/03 13:01:51;;;;;;;949.80;863.05;;;;;;;;;;6035308;23;20023;-64
2023/08/03 13:04:18;;;;;;;944.40;858.67;;;;;;;;;;6035333;23;20369;-64
2023/08/03 13:06:45;;;;;;;952.40;863.20;;;;;;;;;;6035604;23;20016;-65
2023/08/03 13:09:12;;;;;;;958.92;868.90;;;;;;;;;;6034862;23;20407;-64
2023/08/03 13:11:38;;;;;;;941.90;856.08;;;;;;;;;;6035577;23;20019;-65
2023/08/03 13:14:05;;;;;;;941.80;855.88;;;;;;;;;;6035327;23;20023;-65
2023/08/03 13:16:31;;;;;;;946.70;860.20;;;;;;;;;;6035212;23;20050;-65
2023/08/03 13:18:58;;;;;;;945.42;858.95;;;;;;;;;;6035494;23;20020;-65
2023/08/03 13:21:25;;;;;;;938.45;852.95;;;;;;;;;;6036137;23;20030;-65
2023/08/03 13:23:51;;;;;;;951.78;864.72;;;;;;;;;;6035733;23;20012;-65
2023/08/03 13:26:18;;;;;;;941.28;855.22;;;;;;;;;;6034495;23;20044;-65
2023/08/03 13:28:50;;;;;;;951.50;864.28;;;;;;;;;;6035227;23;20027;-66
2023/08/03 13:31:17;;;;;;;952.67;864.40;;;;;;;;;;6035238;23;20115;-65
2023/08/03 13:33:44;;;;;;;965.22;874.50;;;;;;;;;;6035556;23;20020;-65
2023/08/03 13:36:10;;;;;;;952.88;866.92;;;;;;;;;;6037486;23;20023;-65
2023/08/03 13:38:37;;;;;;;967.50;877.95;;;;;;;;;;6036903;23;20011;-64
2023/08/03 13:41:05;;;;;;;961.92;875.83;;;;;;;;;;6011210;23;20027;-64
2023/08/03 13:43:32;;;;;;;968.85;879.45;;;;;;;;;;6037012;23;20021;-64
2023/08/03 13:45:59;;;;;;;958.92;870.63;;;;;;;;;;6036820;23;20675;-65
2023/08/03 13:48:26;;;;;;;960.92;873.03;;;;;;;;;;6037263;23;20446;-65
2023/08/03 13:50:53;;;;;;;958.65;872.22;;;;;;;;;;6037161;23;20029;-65
2023/08/03 13:53:19;;;;;;;967.28;881.17;;;;;;;;;;6037105;23;20019;-65
2023/08/03 13:55:46;;;;;;;965.58;878.65;;;;;;;;;;6036433;23;20043;-65
2023/08/03 13:58:12;;;;;;;958.45;869.58;;;;;;;;;;6037088;23;20410;-65
2023/08/03 14:01:00;;;;;;;966.80;878.38;;;;;;;;;;6036878;23;20523;-66